createdAt,value
2022-11-27T00:01:15.757Z,2.22
2022-11-27T00:03:43.057Z,2.30
2022-11-27T00:06:14.204Z,2.03
2022-11-27T00:08:40.693Z,2.53
2022-11-27T00:11:14.088Z,2.20
2022-11-27T00:13:40.943Z,2.10
2022-11-27T00:16:08.782Z,2.22
2022-11-27T00:18:35.754Z,2.22
2022-11-27T00:21:12.278Z,2.08
2022-11-27T00:23:39.363Z,2.22
2022-11-27T00:26:07.091Z,2.30
2022-11-27T00:28:34.802Z,2.45
2022-11-27T00:31:08.691Z,2.25
2022-11-27T00:33:35.212Z,2.13
2022-11-27T00:36:03.428Z,2.20
2022-11-27T00:38:31.722Z,2.15
2022-11-27T00:41:24.422Z,2.33
2022-11-27T00:43:51.488Z,2.17
2022-11-27T00:46:25.236Z,1.88
2022-11-27T00:48:54.409Z,2.28
2022-11-27T00:51:22.630Z,1.92
2022-11-27T00:53:49.549Z,2.05
2022-11-27T00:56:18.107Z,2.00
2022-11-27T00:58:45.037Z,1.70
2022-11-27T01:01:21.772Z,1.90
2022-11-27T01:03:49.250Z,2.08
2022-11-27T01:06:17.999Z,2.17
2022-11-27T01:08:45.103Z,2.20
2022-11-27T01:11:41.178Z,2.45
2022-11-27T01:14:12.148Z,1.90
2022-11-27T01:16:43.077Z,1.90
2022-11-27T01:19:11.855Z,2.05
2022-11-27T01:21:38.475Z,1.92
2022-11-27T01:24:05.700Z,1.83
2022-11-27T01:26:33.005Z,1.65
2022-11-27T01:29:00.296Z,1.83
2022-11-27T01:31:29.797Z,2.15
2022-11-27T01:34:02.142Z,2.00
2022-11-27T01:36:29.220Z,1.65
2022-11-27T01:38:55.838Z,1.70
2022-11-27T01:41:26.101Z,2.10
2022-11-27T01:44:01.718Z,2.00
2022-11-27T01:46:42.511Z,1.77
2022-11-27T01:49:12.010Z,1.83
2022-11-27T01:51:44.315Z,1.70
2022-11-27T01:54:11.514Z,1.73
2022-11-27T01:56:40.147Z,1.98
2022-11-27T01:59:07.448Z,1.65
2022-11-27T02:01:34.017Z,1.55
2022-11-27T02:04:02.381Z,1.58
2022-11-27T02:06:29.325Z,1.38
2022-11-27T02:08:56.327Z,1.80
2022-11-27T02:11:31.495Z,1.60
2022-11-27T02:14:08.510Z,2.00
2022-11-27T02:16:57.566Z,2.03
2022-11-27T02:19:50.040Z,1.83
2022-11-27T02:23:21.659Z,2.17
2022-11-27T02:26:09.657Z,1.70
2022-11-27T02:28:51.581Z,1.52
2022-11-27T02:31:36.011Z,2.25
2022-11-27T02:35:01.256Z,1.80
2022-11-27T02:37:49.384Z,1.90
2022-11-27T02:40:38.067Z,1.50
2022-11-27T02:43:17.844Z,1.90
2022-11-27T02:45:50.594Z,1.92
2022-11-27T02:48:21.426Z,1.50
2022-11-27T02:50:50.854Z,1.40
2022-11-27T02:53:28.304Z,1.45
2022-11-27T02:55:58.180Z,1.90
2022-11-27T02:58:28.129Z,1.45
2022-11-27T03:00:56.807Z,1.60
2022-11-27T03:03:32.310Z,1.65
2022-11-27T03:06:05.818Z,1.73
2022-11-27T03:08:54.904Z,1.60
2022-11-27T03:11:21.921Z,1.70
2022-11-27T03:13:55.040Z,1.80
2022-11-27T03:16:38.045Z,1.60
2022-11-27T03:19:49.391Z,1.60
2022-11-27T03:22:16.922Z,1.70
2022-11-27T03:24:43.811Z,1.70
2022-11-27T03:27:14.303Z,1.83
2022-11-27T03:29:49.923Z,1.65
2022-11-27T03:32:17.370Z,1.60
2022-11-27T03:34:44.838Z,1.42
2022-11-27T03:37:11.283Z,1.80
2022-11-27T03:39:38.256Z,1.75
2022-11-27T03:42:34.181Z,1.67
2022-11-27T03:45:28.172Z,1.40
2022-11-27T03:48:00.812Z,1.50
2022-11-27T03:50:42.445Z,1.58
2022-11-27T03:53:14.990Z,1.70
2022-11-27T03:55:59.273Z,1.75
2022-11-27T03:58:30.991Z,1.63
2022-11-27T04:01:01.582Z,1.40
2022-11-27T04:03:29.933Z,1.75
2022-11-27T04:05:56.997Z,1.98
2022-11-27T04:08:24.331Z,1.58
2022-11-27T04:10:50.806Z,1.50
2022-11-27T04:13:17.367Z,1.40
2022-11-27T04:15:43.867Z,1.40
2022-11-27T04:18:10.469Z,1.30
2022-11-27T04:20:36.943Z,1.35
2022-11-27T04:23:03.709Z,1.30
2022-11-27T04:25:30.215Z,1.40
2022-11-27T04:27:56.724Z,1.40
2022-11-27T04:30:23.309Z,1.48
2022-11-27T04:32:49.793Z,1.75
2022-11-27T04:35:16.430Z,1.25
2022-11-27T04:37:43.010Z,1.40
2022-11-27T04:40:10.126Z,1.48
2022-11-27T04:42:36.696Z,1.42
2022-11-27T04:45:03.271Z,1.40
2022-11-27T04:47:30.229Z,1.40
2022-11-27T04:49:56.680Z,1.55
2022-11-27T04:52:23.180Z,1.33
2022-11-27T04:54:49.690Z,1.50
2022-11-27T04:57:16.162Z,1.73
2022-11-27T04:59:42.643Z,1.30
2022-11-27T05:02:09.134Z,1.42
2022-11-27T05:04:35.698Z,1.48
2022-11-27T05:07:02.204Z,1.08
2022-11-27T05:09:28.794Z,1.30
2022-11-27T05:11:55.225Z,1.30
2022-11-27T05:14:24.142Z,1.60
2022-11-27T05:16:52.484Z,1.50
2022-11-27T05:19:21.227Z,1.10
2022-11-27T05:21:49.417Z,1.20
2022-11-27T05:24:17.593Z,1.50
2022-11-27T05:26:44.121Z,1.00
2022-11-27T05:29:11.187Z,1.00
2022-11-27T05:31:38.664Z,1.27
2022-11-27T05:34:05.635Z,1.50
2022-11-27T05:36:33.285Z,1.40
2022-11-27T05:39:01.592Z,1.08
2022-11-27T05:41:28.531Z,1.20
2022-11-27T05:43:55.266Z,1.50
2022-11-27T05:46:22.985Z,1.42
2022-11-27T05:48:50.105Z,1.02
2022-11-27T05:51:16.919Z,1.05
2022-11-27T05:53:43.628Z,1.08
2022-11-27T05:56:12.821Z,1.17
2022-11-27T05:58:40.999Z,1.38
2022-11-27T06:01:09.122Z,1.02
2022-11-27T06:03:35.884Z,1.30
2022-11-27T06:06:07.629Z,1.27
2022-11-27T06:08:34.121Z,1.35
2022-11-27T06:11:00.599Z,1.30
2022-11-27T06:13:27.146Z,1.13
2022-11-27T06:15:53.600Z,1.30
2022-11-27T06:18:20.133Z,1.10
2022-11-27T06:20:51.708Z,1.27
2022-11-27T06:23:19.493Z,1.00
2022-11-27T06:25:46.004Z,1.25
2022-11-27T06:28:12.573Z,1.10
2022-11-27T06:30:39.054Z,1.10
2022-11-27T06:33:05.613Z,1.33
2022-11-27T06:35:32.111Z,1.20
2022-11-27T06:37:58.607Z,1.20
2022-11-27T06:40:25.058Z,1.00
2022-11-27T06:42:51.523Z,1.30
2022-11-27T06:45:17.971Z,1.10
2022-11-27T06:47:45.495Z,0.98
2022-11-27T06:50:12.061Z,1.00
2022-11-27T06:52:40.676Z,1.27
2022-11-27T06:55:08.016Z,1.15
2022-11-27T06:57:34.566Z,1.20
2022-11-27T07:00:01.218Z,1.40
2022-11-27T07:02:27.669Z,1.17
2022-11-27T07:04:54.166Z,1.10
2022-11-27T07:07:20.757Z,0.90
2022-11-27T07:09:47.397Z,1.00
2022-11-27T07:12:13.905Z,1.10
2022-11-27T07:14:40.718Z,1.20
2022-11-27T07:17:07.412Z,1.00
2022-11-27T07:19:33.905Z,1.05
2022-11-27T07:22:00.493Z,1.30
2022-11-27T07:24:26.963Z,1.00
2022-11-27T07:26:53.441Z,1.13
2022-11-27T07:29:19.902Z,0.90
2022-11-27T07:31:46.428Z,0.95
2022-11-27T07:34:17.070Z,0.95
2022-11-27T07:36:47.805Z,1.02
2022-11-27T07:39:14.240Z,1.20
2022-11-27T07:41:40.736Z,1.05
2022-11-27T07:44:07.239Z,0.98
2022-11-27T07:46:33.729Z,1.10
2022-11-27T07:49:00.778Z,0.98
2022-11-27T07:51:27.630Z,1.17
2022-11-27T07:53:54.278Z,1.20
2022-11-27T07:56:21.191Z,1.10
2022-11-27T07:58:48.380Z,1.15
2022-11-27T08:01:17.300Z,1.08
2022-11-27T08:03:44.645Z,1.00
2022-11-27T08:06:21.927Z,1.00
2022-11-27T08:08:49.206Z,1.08
2022-11-27T08:11:16.948Z,0.90
2022-11-27T08:13:43.836Z,0.95
2022-11-27T08:16:10.396Z,0.98
2022-11-27T08:18:36.849Z,1.25
2022-11-27T08:21:03.545Z,1.08
2022-11-27T08:23:30.039Z,1.08
2022-11-27T08:25:56.546Z,1.00
2022-11-27T08:28:23.078Z,1.08
2022-11-27T08:31:00.529Z,1.00
2022-11-27T08:33:27.344Z,0.88
2022-11-27T08:35:54.351Z,1.27
2022-11-27T08:38:21.771Z,0.90
2022-11-27T08:40:58.951Z,1.15
2022-11-27T08:43:26.164Z,1.00
2022-11-27T08:45:53.212Z,0.90
2022-11-27T08:48:21.372Z,1.02
2022-11-27T08:50:48.604Z,0.90
2022-11-27T08:53:15.972Z,1.00
2022-11-27T08:55:43.196Z,1.00
2022-11-27T08:58:10.274Z,0.93
2022-11-27T09:00:38.048Z,1.00
2022-11-27T09:03:05.499Z,0.98
2022-11-27T09:05:32.383Z,1.10
2022-11-27T09:07:59.877Z,1.02
2022-11-27T09:10:26.515Z,1.42
2022-11-27T09:12:52.997Z,0.90
2022-11-27T09:15:19.672Z,1.00
2022-11-27T09:17:46.192Z,1.02
2022-11-27T09:20:14.327Z,0.80
2022-11-27T09:22:40.787Z,0.90
2022-11-27T09:25:07.629Z,0.93
2022-11-27T09:27:34.098Z,1.10
2022-11-27T09:30:00.664Z,1.08
2022-11-27T09:32:27.437Z,1.10
2022-11-27T09:34:53.992Z,1.20
2022-11-27T09:37:20.496Z,0.85
2022-11-27T09:39:46.946Z,0.90
2022-11-27T09:42:32.166Z,0.85
2022-11-27T09:45:00.237Z,1.35
2022-11-27T09:47:41.587Z,1.30
2022-11-27T09:50:14.477Z,1.20
2022-11-27T09:52:52.474Z,1.00
2022-11-27T09:55:31.115Z,1.00
2022-11-27T09:58:33.083Z,1.00
2022-11-27T10:00:59.761Z,1.00
2022-11-27T10:03:28.755Z,1.33
2022-11-27T10:06:11.875Z,1.15
2022-11-27T10:08:51.485Z,0.80
2022-11-27T10:11:49.058Z,0.90
2022-11-27T10:14:41.405Z,0.80
2022-11-27T10:17:29.669Z,1.27
2022-11-27T10:20:15.919Z,0.85
2022-11-27T10:22:45.393Z,0.90
2022-11-27T10:25:25.238Z,0.80
2022-11-27T10:28:04.233Z,0.93
2022-11-27T10:30:33.300Z,1.20
2022-11-27T10:33:00.827Z,1.23
2022-11-27T10:35:30.600Z,1.27
2022-11-27T10:38:07.355Z,1.37
2022-11-27T10:40:39.199Z,0.90
2022-11-27T10:43:14.409Z,1.13
2022-11-27T10:45:49.431Z,1.00
2022-11-27T10:48:16.595Z,1.20
2022-11-27T10:50:44.012Z,1.10
2022-11-27T10:53:25.280Z,0.93
2022-11-27T10:56:00.791Z,1.23
2022-11-27T10:58:45.770Z,1.10
2022-11-27T11:01:15.004Z,0.90
2022-11-27T11:03:41.888Z,1.33
2022-11-27T11:06:21.169Z,0.98
2022-11-27T11:09:01.558Z,1.08
2022-11-27T11:11:28.377Z,1.30
2022-11-27T11:13:55.796Z,1.00
2022-11-27T11:16:32.004Z,1.00
2022-11-27T11:19:01.541Z,0.88
2022-11-27T11:21:33.714Z,1.27
2022-11-27T11:24:07.689Z,1.10
2022-11-27T11:26:37.990Z,1.23
2022-11-27T11:29:17.975Z,1.05
2022-11-27T11:31:45.108Z,1.25
2022-11-27T11:34:27.597Z,1.00
2022-11-27T11:37:07.315Z,1.23
2022-11-27T11:39:52.235Z,1.30
2022-11-27T11:42:21.974Z,1.08
2022-11-27T11:44:54.998Z,1.40
2022-11-27T11:47:25.007Z,1.10
2022-11-27T11:49:52.909Z,1.13
2022-11-27T11:52:54.349Z,1.17
2022-11-27T11:55:35.677Z,1.08
2022-11-27T11:58:21.043Z,1.10
2022-11-27T12:01:19.449Z,1.00
2022-11-27T12:04:19.613Z,1.10
2022-11-27T12:07:06.312Z,1.33
2022-11-27T12:09:54.514Z,1.40
2022-11-27T12:12:45.866Z,1.30
2022-11-27T12:15:21.767Z,1.23
2022-11-27T12:17:51.110Z,1.30
2022-11-27T12:20:54.616Z,1.05
2022-11-27T12:23:31.843Z,1.00
2022-11-27T12:26:14.125Z,1.10
2022-11-27T12:29:04.130Z,1.23
2022-11-27T12:32:18.471Z,1.20
2022-11-27T12:34:54.678Z,1.00
2022-11-27T12:37:30.633Z,1.52
2022-11-27T12:40:04.451Z,1.33
2022-11-27T12:42:38.898Z,0.90
2022-11-27T12:45:20.491Z,1.20
2022-11-27T12:47:52.639Z,1.10
2022-11-27T12:50:39.977Z,1.20
2022-11-27T12:53:24.460Z,1.10
2022-11-27T12:56:13.986Z,1.10
2022-11-27T12:58:45.543Z,1.50
2022-11-27T13:01:26.826Z,1.20
2022-11-27T13:04:11.626Z,1.60
2022-11-27T13:06:56.475Z,1.00
2022-11-27T13:09:35.178Z,1.33
2022-11-27T13:12:03.531Z,1.02
2022-11-27T13:14:34.597Z,1.30
2022-11-27T13:17:06.019Z,1.20
2022-11-27T13:19:41.909Z,1.30
2022-11-27T13:22:16.258Z,1.25
2022-11-27T13:24:43.285Z,1.25
2022-11-27T13:27:17.686Z,1.20
2022-11-27T13:29:47.260Z,1.10
2022-11-27T13:32:22.319Z,1.20
2022-11-27T13:34:51.499Z,1.25
2022-11-27T13:37:27.134Z,1.10
2022-11-27T13:40:04.051Z,1.10
2022-11-27T13:42:34.105Z,1.20
2022-11-27T13:45:11.344Z,1.30
2022-11-27T13:47:42.455Z,1.48
2022-11-27T13:50:12.491Z,1.10
2022-11-27T13:52:51.402Z,1.20
2022-11-27T13:55:30.006Z,1.40
2022-11-27T13:57:59.506Z,1.30
2022-11-27T14:00:36.980Z,1.35
2022-11-27T14:03:04.538Z,1.20
2022-11-27T14:05:43.436Z,1.20
2022-11-27T14:08:26.646Z,1.20
2022-11-27T14:10:56.095Z,1.10
2022-11-27T14:13:32.903Z,1.20
2022-11-27T14:16:02.490Z,1.08
2022-11-27T14:18:30.827Z,1.20
2022-11-27T14:21:03.537Z,1.20
2022-11-27T14:23:48.270Z,1.40
2022-11-27T14:26:15.421Z,1.17
2022-11-27T14:28:50.703Z,1.10
2022-11-27T14:31:35.851Z,1.10
2022-11-27T14:34:23.115Z,1.20
2022-11-27T14:36:52.510Z,1.10
2022-11-27T14:39:38.280Z,1.02
2022-11-27T14:42:08.387Z,1.25
2022-11-27T14:44:35.065Z,1.20
2022-11-27T14:47:05.449Z,1.42
2022-11-27T14:49:33.811Z,1.10
2022-11-27T14:52:04.533Z,1.30
2022-11-27T14:57:06.890Z,1.00
2022-11-27T14:59:33.736Z,1.50
2022-11-27T15:02:15.363Z,1.27
2022-11-27T15:04:44.400Z,1.10
2022-11-27T15:07:25.119Z,1.10
2022-11-27T15:12:35.238Z,1.10
2022-11-27T15:15:04.675Z,1.13
2022-11-27T15:17:34.556Z,1.20
2022-11-27T15:20:04.202Z,1.17
2022-11-27T15:22:33.342Z,1.00
2022-11-27T15:25:01.089Z,1.15
2022-11-27T15:27:31.405Z,1.00
2022-11-27T15:30:10.437Z,1.10
2022-11-27T15:32:52.044Z,1.00
2022-11-27T15:35:30.308Z,1.10
2022-11-27T15:37:58.114Z,1.20
2022-11-27T15:40:35.993Z,1.02
2022-11-27T15:43:06.322Z,1.27
2022-11-27T15:45:33.069Z,1.20
2022-11-27T15:48:01.398Z,1.20
2022-11-27T15:50:29.811Z,1.25
2022-11-27T15:52:56.735Z,1.20
2022-11-27T15:55:23.779Z,1.20
2022-11-27T15:57:50.239Z,1.30
2022-11-27T16:00:17.305Z,1.20
2022-11-27T16:02:43.935Z,1.73
2022-11-27T16:05:10.885Z,1.10
2022-11-27T16:07:37.387Z,1.13
2022-11-27T16:10:04.637Z,1.42
2022-11-27T16:12:31.265Z,1.50
2022-11-27T16:14:57.979Z,1.38
2022-11-27T16:17:24.437Z,1.20
2022-11-27T16:19:50.998Z,1.73
2022-11-27T16:22:17.673Z,1.30
2022-11-27T16:24:44.485Z,1.73
2022-11-27T16:27:11.297Z,1.40
2022-11-27T16:29:37.825Z,1.10
2022-11-27T16:32:05.492Z,1.40
2022-11-27T16:34:31.974Z,1.45
2022-11-27T16:36:58.652Z,1.35
2022-11-27T16:39:25.285Z,1.38
2022-11-27T16:41:51.762Z,1.40
2022-11-27T16:44:18.307Z,1.58
2022-11-27T16:46:44.951Z,1.30
2022-11-27T16:49:11.851Z,1.20
2022-11-27T16:51:39.332Z,1.40
2022-11-27T16:54:07.823Z,1.52
2022-11-27T16:56:35.165Z,1.30
2022-11-27T16:59:03.370Z,1.55
2022-11-27T17:01:35.268Z,1.45
2022-11-27T17:04:04.647Z,1.17
2022-11-27T17:06:33.690Z,1.73
2022-11-27T17:09:01.899Z,1.30
2022-11-27T17:11:33.111Z,1.13
2022-11-27T17:14:01.320Z,1.55
2022-11-27T17:16:28.629Z,1.60
2022-11-27T17:18:55.259Z,1.23
2022-11-27T17:21:30.207Z,1.20
2022-11-27T17:23:59.104Z,1.58
2022-11-27T17:26:28.976Z,1.33
2022-11-27T17:28:56.449Z,1.50
2022-11-27T17:31:28.347Z,1.42
2022-11-27T17:33:56.861Z,1.45
2022-11-27T17:36:26.914Z,1.55
2022-11-27T17:38:53.875Z,1.27
2022-11-27T17:41:21.438Z,1.70
2022-11-27T17:43:48.644Z,1.60
2022-11-27T17:46:23.995Z,1.30
2022-11-27T17:48:51.640Z,1.60
2022-11-27T17:51:18.875Z,1.50
2022-11-27T17:53:45.618Z,1.52
2022-11-27T17:56:15.616Z,1.48
2022-11-27T17:58:42.495Z,1.55
2022-11-27T18:01:18.578Z,1.25
2022-11-27T18:03:46.512Z,1.30
2022-11-27T18:06:14.050Z,1.73
2022-11-27T18:08:40.586Z,1.40
2022-11-27T18:11:09.759Z,1.33
2022-11-27T18:13:36.571Z,1.77
2022-11-27T18:16:14.589Z,1.50
2022-11-27T18:18:41.932Z,1.65
2022-11-27T18:21:18.267Z,1.65
2022-11-27T18:24:20.814Z,1.48
2022-11-27T18:27:00.580Z,1.55
2022-11-27T18:29:21.784Z,1.67
2022-11-27T18:31:49.982Z,1.63
2022-11-27T18:34:16.608Z,1.50
2022-11-27T18:36:43.273Z,1.67
2022-11-27T18:39:09.745Z,1.60
2022-11-27T18:41:37.295Z,1.58
2022-11-27T18:44:04.489Z,1.77
2022-11-27T18:46:31.413Z,1.67
2022-11-27T18:48:58.732Z,1.77
2022-11-27T18:51:26.480Z,1.50
2022-11-27T18:53:54.519Z,1.90
2022-11-27T18:56:23.826Z,1.70
2022-11-27T18:58:50.894Z,1.75
2022-11-27T19:01:20.883Z,1.50
2022-11-27T19:03:47.907Z,1.70
2022-11-27T19:06:15.639Z,1.60
2022-11-27T19:08:42.617Z,1.55
2022-11-27T19:11:12.021Z,1.80
2022-11-27T19:13:39.420Z,1.73
2022-11-27T19:16:08.548Z,1.90
2022-11-27T19:18:36.910Z,1.90
2022-11-27T19:21:23.534Z,1.85
2022-11-27T19:23:50.999Z,1.80
2022-11-27T19:26:23.435Z,2.10
2022-11-27T19:28:51.562Z,1.80
2022-11-27T19:31:19.060Z,1.90
2022-11-27T19:33:51.780Z,1.90
2022-11-27T19:36:18.450Z,2.00
2022-11-27T19:38:45.048Z,1.70
2022-11-27T19:41:13.592Z,1.70
2022-11-27T19:43:40.636Z,1.70
2022-11-27T19:46:21.994Z,2.08
2022-11-27T19:48:49.401Z,2.10
2022-11-27T19:51:16.554Z,2.05
2022-11-27T19:53:43.425Z,2.05
2022-11-27T19:56:10.176Z,1.88
2022-11-27T19:58:38.303Z,2.00
2022-11-27T20:01:09.302Z,1.83
2022-11-27T20:03:36.064Z,1.90
2022-11-27T20:06:08.071Z,1.50
2022-11-27T20:08:34.846Z,1.90
2022-11-27T20:11:02.472Z,1.85
2022-11-27T20:13:29.024Z,1.92
2022-11-27T20:15:55.620Z,1.60
2022-11-27T20:18:22.473Z,1.70
2022-11-27T20:20:49.144Z,2.10
2022-11-27T20:23:15.901Z,2.00
2022-11-27T20:25:42.866Z,1.70
2022-11-27T20:28:10.046Z,2.10
2022-11-27T20:30:39.206Z,2.20
2022-11-27T20:33:07.681Z,2.15
2022-11-27T20:35:34.489Z,1.90
2022-11-27T20:38:01.021Z,2.08
2022-11-27T20:40:28.393Z,2.00
2022-11-27T20:42:54.876Z,1.88
2022-11-27T20:45:21.554Z,2.05
2022-11-27T20:47:48.121Z,2.03
2022-11-27T20:50:14.649Z,1.70
2022-11-27T20:52:41.107Z,1.80
2022-11-27T20:55:08.156Z,2.13
2022-11-27T20:57:34.724Z,1.98
2022-11-27T21:00:01.165Z,2.20
2022-11-27T21:02:27.808Z,1.98
2022-11-27T21:04:54.328Z,1.80
2022-11-27T21:07:21.560Z,2.20
2022-11-27T21:09:48.069Z,2.20
2022-11-27T21:12:15.624Z,2.05
2022-11-27T21:14:45.161Z,1.80
2022-11-27T21:17:11.785Z,2.05
2022-11-27T21:19:38.402Z,1.80
2022-11-27T21:22:04.980Z,2.10
2022-11-27T21:24:31.503Z,2.28
2022-11-27T21:26:58.052Z,2.40
2022-11-27T21:29:27.697Z,1.85
2022-11-27T21:31:55.319Z,2.03
2022-11-27T21:34:22.074Z,2.00
2022-11-27T21:36:49.034Z,1.80
2022-11-27T21:39:20.561Z,1.83
2022-11-27T21:41:54.167Z,1.70
2022-11-27T21:44:21.872Z,2.10
2022-11-27T21:46:49.340Z,1.83
2022-11-27T21:49:17.745Z,1.70
2022-11-27T21:51:44.774Z,2.03
2022-11-27T21:54:14.982Z,2.03
2022-11-27T21:56:41.779Z,1.98
2022-11-27T21:59:10.942Z,2.00
2022-11-27T22:01:37.924Z,2.05
2022-11-27T22:04:04.704Z,1.88
2022-11-27T22:06:37.324Z,1.98
2022-11-27T22:09:07.386Z,2.00
2022-11-27T22:11:35.754Z,2.55
2022-11-27T22:14:05.822Z,2.08
2022-11-27T22:16:38.615Z,2.05
2022-11-27T22:19:10.158Z,2.08
2022-11-27T22:21:36.931Z,2.15
2022-11-27T22:24:03.576Z,1.75
2022-11-27T22:26:30.070Z,1.70
2022-11-27T22:28:57.925Z,1.90
2022-11-27T22:31:29.996Z,2.20
2022-11-27T22:33:57.606Z,1.73
2022-11-27T22:36:34.750Z,2.10
2022-11-27T22:39:05.886Z,1.83
2022-11-27T22:41:35.335Z,1.92
2022-11-27T22:44:14.253Z,2.30
2022-11-27T22:46:42.401Z,2.10
2022-11-27T22:49:12.223Z,2.08
2022-11-27T22:51:39.418Z,1.77
2022-11-27T22:54:07.848Z,1.95
2022-11-27T22:56:34.571Z,2.00
2022-11-27T22:59:30.466Z,2.08
2022-11-27T23:01:48.682Z,1.95
2022-11-27T23:04:15.613Z,1.70
2022-11-27T23:06:42.185Z,1.90
2022-11-27T23:09:09.519Z,1.70
2022-11-27T23:11:36.038Z,1.90
2022-11-27T23:14:03.389Z,1.95
2022-11-27T23:16:29.992Z,1.75
2022-11-27T23:18:56.609Z,1.88
2022-11-27T23:21:24.478Z,1.83
2022-11-27T23:23:51.682Z,1.85
2022-11-27T23:26:23.729Z,2.10
2022-11-27T23:28:52.730Z,1.75
2022-11-27T23:31:29.938Z,1.92
2022-11-27T23:33:56.880Z,2.17
2022-11-27T23:36:23.439Z,2.20
2022-11-27T23:38:49.984Z,1.98
2022-11-27T23:41:22.556Z,1.83
2022-11-27T23:43:50.284Z,1.65
2022-11-27T23:46:18.744Z,1.67
2022-11-27T23:48:46.124Z,1.52
2022-11-27T23:51:15.994Z,1.70
2022-11-27T23:53:43.117Z,2.10
2022-11-27T23:56:12.876Z,1.80
2022-11-27T23:58:45.255Z,1.67
